createdAt,value
2017-10-27T00:00:26.343Z,99.80
2017-10-27T00:02:54.467Z,99.90
2017-10-27T00:05:22.607Z,99.90
2017-10-27T00:07:51.146Z,99.90
2017-10-27T00:10:20.008Z,99.90
2017-10-27T00:12:48.143Z,99.90
2017-10-27T00:15:16.256Z,99.90
2017-10-27T00:17:44.412Z,99.90
2017-10-27T00:20:12.536Z,99.90
2017-10-27T00:22:41.391Z,99.90
2017-10-27T00:25:09.528Z,99.90
2017-10-27T00:27:37.919Z,99.90
2017-10-27T00:30:06.060Z,99.90
2017-10-27T00:32:34.556Z,99.70
2017-10-27T00:35:02.729Z,99.60
2017-10-27T00:37:30.851Z,99.10
2017-10-27T00:39:58.980Z,99.30
2017-10-27T00:42:27.155Z,99.30
2017-10-27T00:44:55.292Z,99.40
2017-10-27T00:47:24.211Z,99.40
2017-10-27T00:49:52.356Z,99.40
2017-10-27T00:52:20.502Z,99.50
2017-10-27T00:54:49.068Z,99.60
2017-10-27T00:57:17.263Z,99.60
2017-10-27T00:59:45.514Z,99.60
2017-10-27T01:02:13.665Z,99.60
2017-10-27T01:04:41.780Z,99.80
2017-10-27T01:07:09.984Z,99.90
2017-10-27T01:09:38.903Z,99.90
2017-10-27T01:12:07.040Z,99.90
2017-10-27T01:14:35.216Z,99.90
2017-10-27T01:17:03.415Z,99.90
2017-10-27T01:19:31.603Z,99.90
2017-10-27T01:21:59.824Z,99.90
2017-10-27T01:24:28.051Z,99.90
2017-10-27T01:26:56.280Z,99.90
2017-10-27T01:29:25.555Z,99.60
2017-10-27T01:31:53.731Z,99.70
2017-10-27T01:34:21.957Z,99.70
2017-10-27T01:36:50.160Z,99.60
2017-10-27T01:39:18.350Z,99.70
2017-10-27T01:41:46.564Z,99.90
2017-10-27T01:44:14.724Z,99.70
2017-10-27T01:46:43.264Z,99.80
2017-10-27T01:49:11.494Z,99.90
2017-10-27T01:51:39.792Z,99.90
2017-10-27T01:54:08.754Z,99.90
2017-10-27T01:56:36.978Z,99.90
2017-10-27T01:59:05.179Z,99.90
2017-10-27T02:01:33.392Z,99.90
2017-10-27T02:04:03.114Z,99.90
2017-10-27T02:06:31.304Z,99.90
2017-10-27T02:09:00.260Z,99.90
2017-10-27T02:11:28.807Z,99.90
2017-10-27T02:13:56.996Z,99.90
2017-10-27T02:16:25.500Z,99.90
2017-10-27T02:18:53.745Z,99.90
2017-10-27T02:21:21.980Z,99.80
2017-10-27T02:23:50.941Z,99.60
2017-10-27T02:26:19.163Z,99.50
2017-10-27T02:28:47.336Z,99.60
2017-10-27T02:31:15.536Z,99.60
2017-10-27T02:33:43.740Z,99.50
2017-10-27T02:36:12.698Z,99.80
2017-10-27T02:38:40.959Z,99.90
2017-10-27T02:41:09.171Z,99.80
2017-10-27T02:43:37.322Z,99.80
2017-10-27T02:46:05.456Z,99.90
2017-10-27T02:48:33.873Z,99.90
2017-10-27T02:51:02.008Z,99.90
2017-10-27T02:53:30.156Z,99.90
2017-10-27T02:55:58.300Z,99.90
2017-10-27T02:58:26.439Z,99.90
2017-10-27T03:00:54.571Z,99.90
2017-10-27T03:03:22.699Z,99.90
2017-10-27T03:05:50.821Z,99.90
2017-10-27T03:08:18.998Z,99.90
2017-10-27T03:10:47.132Z,99.90
2017-10-27T03:13:15.584Z,99.90
2017-10-27T03:15:44.509Z,99.90
2017-10-27T03:18:12.636Z,99.90
2017-10-27T03:20:40.775Z,99.90
2017-10-27T03:23:08.918Z,99.90
2017-10-27T03:25:37.097Z,99.90
2017-10-27T03:28:05.251Z,99.90
2017-10-27T03:30:34.165Z,99.90
2017-10-27T03:33:02.311Z,99.90
2017-10-27T03:35:30.439Z,99.90
2017-10-27T03:37:59.871Z,99.90
2017-10-27T03:40:28.007Z,99.90
2017-10-27T03:42:56.159Z,99.90
2017-10-27T03:45:24.323Z,99.90
2017-10-27T03:47:52.464Z,99.90
2017-10-27T03:50:20.651Z,99.90
2017-10-27T03:52:49.288Z,99.90
2017-10-27T03:55:17.512Z,99.90
2017-10-27T03:57:46.456Z,99.90
2017-10-27T04:00:14.673Z,99.90
2017-10-27T04:02:43.551Z,99.90
2017-10-27T04:05:11.726Z,99.90
2017-10-27T04:07:40.245Z,99.90
2017-10-27T04:10:08.375Z,99.80
2017-10-27T04:12:36.480Z,99.60
2017-10-27T04:15:05.412Z,99.80
2017-10-27T04:17:33.584Z,99.80
2017-10-27T04:20:01.723Z,99.90
2017-10-27T04:22:29.860Z,99.90
2017-10-27T04:24:59.483Z,99.90
2017-10-27T04:27:27.639Z,99.90
2017-10-27T04:29:55.779Z,99.90
2017-10-27T04:32:23.924Z,99.90
2017-10-27T04:47:58.488Z,98.30
2017-10-27T04:50:26.611Z,99.00
2017-10-27T04:52:54.728Z,99.30
2017-10-27T04:55:22.879Z,99.40
2017-10-27T04:57:51.019Z,99.50
2017-10-27T05:00:19.159Z,99.70
2017-10-27T05:02:47.303Z,99.80
2017-10-27T05:05:16.023Z,99.90
2017-10-27T05:07:44.241Z,99.90
2017-10-27T05:10:13.535Z,99.90
2017-10-27T05:12:42.423Z,99.90
2017-10-27T05:15:11.314Z,99.90
2017-10-27T05:17:46.000Z,99.90
2017-10-27T05:20:19.742Z,99.90
2017-10-27T05:22:54.311Z,99.90
2017-10-27T05:25:22.436Z,99.90
2017-10-27T05:27:50.567Z,99.90
2017-10-27T05:30:18.691Z,99.90
2017-10-27T05:32:47.581Z,99.90
2017-10-27T05:35:16.465Z,99.90
2017-10-27T05:37:45.383Z,99.70
2017-10-27T05:40:13.530Z,99.70
2017-10-27T05:42:41.935Z,99.70
2017-10-27T05:45:10.096Z,99.80
2017-10-27T05:47:38.263Z,99.90
2017-10-27T05:50:07.600Z,99.90
2017-10-27T05:52:35.763Z,99.90
2017-10-27T05:55:03.928Z,99.80
2017-10-27T05:57:32.096Z,99.60
2017-10-27T06:00:00.244Z,99.50
2017-10-27T06:02:28.376Z,99.40
2017-10-27T06:04:56.529Z,98.90
2017-10-27T06:07:24.695Z,98.80
2017-10-27T06:09:52.836Z,98.30
2017-10-27T06:12:21.740Z,98.30
2017-10-27T06:14:51.043Z,98.40
2017-10-27T06:17:19.895Z,98.50
2017-10-27T06:19:48.032Z,98.30
2017-10-27T06:22:16.164Z,98.30
2017-10-27T06:24:44.300Z,98.10
2017-10-27T06:27:12.436Z,98.10
2017-10-27T06:29:41.287Z,98.00
2017-10-27T06:32:09.399Z,97.90
2017-10-27T06:34:38.688Z,98.10
2017-10-27T06:37:07.573Z,98.20
2017-10-27T06:39:35.742Z,98.00
2017-10-27T06:42:03.865Z,98.10
2017-10-27T06:44:32.136Z,98.00
2017-10-27T06:47:00.524Z,97.90
2017-10-27T06:49:28.644Z,97.90
2017-10-27T06:51:56.787Z,97.50
2017-10-27T06:54:24.918Z,97.60
2017-10-27T06:56:54.320Z,97.70
2017-10-27T06:59:22.492Z,97.60
2017-10-27T07:01:50.615Z,97.50
2017-10-27T07:04:18.760Z,97.20
2017-10-27T07:06:47.567Z,97.10
2017-10-27T07:09:15.976Z,97.10
2017-10-27T07:11:44.922Z,96.60
2017-10-27T07:14:13.080Z,96.60
2017-10-27T07:16:41.235Z,97.00
2017-10-27T07:19:10.099Z,96.80
2017-10-27T07:21:38.304Z,96.70
2017-10-27T07:24:06.484Z,96.90
2017-10-27T07:26:35.444Z,96.40
2017-10-27T07:29:05.513Z,96.30
2017-10-27T07:31:34.147Z,96.30
2017-10-27T07:34:03.119Z,96.40
2017-10-27T07:36:31.388Z,95.50
2017-10-27T07:38:59.591Z,95.50
2017-10-27T07:41:28.548Z,96.10
2017-10-27T07:43:56.756Z,95.20
2017-10-27T07:46:24.934Z,94.80
2017-10-27T07:48:54.902Z,94.40
2017-10-27T07:51:23.099Z,94.30
2017-10-27T07:53:51.328Z,93.80
2017-10-27T07:56:20.273Z,93.10
2017-10-27T07:58:48.518Z,93.00
2017-10-27T08:01:16.756Z,93.00
2017-10-27T08:03:45.000Z,92.40
2017-10-27T08:06:13.208Z,92.00
2017-10-27T08:08:41.891Z,91.50
2017-10-27T08:11:10.103Z,91.40
2017-10-27T08:13:38.425Z,92.10
2017-10-27T08:16:06.628Z,92.50
2017-10-27T08:18:35.604Z,92.70
2017-10-27T08:21:03.856Z,92.70
2017-10-27T08:23:32.071Z,93.20
2017-10-27T08:26:01.024Z,92.80
2017-10-27T08:28:29.227Z,92.70
2017-10-27T08:30:57.868Z,92.60
2017-10-27T08:33:26.047Z,92.10
2017-10-27T08:35:54.271Z,91.90
2017-10-27T08:38:22.701Z,91.50
2017-10-27T08:40:50.924Z,90.90
2017-10-27T08:43:19.111Z,90.50
2017-10-27T08:45:47.302Z,90.40
2017-10-27T08:48:15.515Z,90.20
2017-10-27T08:50:43.756Z,89.50
2017-10-27T08:53:12.418Z,89.40
2017-10-27T08:55:40.663Z,89.50
2017-10-27T08:58:08.863Z,89.40
2017-10-27T09:00:37.070Z,89.50
2017-10-27T09:03:05.334Z,89.60
2017-10-27T09:05:33.564Z,89.50
2017-10-27T09:08:01.792Z,90.20
2017-10-27T09:10:30.043Z,89.60
2017-10-27T09:12:58.436Z,90.00
2017-10-27T09:15:26.656Z,89.80
2017-10-27T09:17:54.849Z,89.50
2017-10-27T09:20:23.128Z,89.60
2017-10-27T09:22:51.319Z,89.80
2017-10-27T09:25:19.524Z,90.20
2017-10-27T09:27:47.715Z,90.40
2017-10-27T09:30:15.887Z,89.90
2017-10-27T09:32:44.139Z,89.90
2017-10-27T09:35:13.099Z,90.10
2017-10-27T09:37:41.365Z,90.10
2017-10-27T09:40:09.779Z,90.00
2017-10-27T09:42:38.776Z,89.60
2017-10-27T09:45:06.992Z,89.60
2017-10-27T09:47:35.235Z,89.20
2017-10-27T09:50:04.195Z,87.90
2017-10-27T09:52:33.003Z,87.80
2017-10-27T09:55:01.933Z,86.00
2017-10-27T09:57:30.143Z,85.90
2017-10-27T09:59:58.372Z,86.20
2017-10-27T10:02:26.600Z,85.80
2017-10-27T10:04:54.799Z,85.50
2017-10-27T10:07:23.760Z,83.80
2017-10-27T10:09:52.046Z,83.70
2017-10-27T10:12:21.752Z,82.00
2017-10-27T10:14:49.987Z,81.90
2017-10-27T10:17:18.529Z,81.80
2017-10-27T10:19:46.743Z,81.30
2017-10-27T10:22:14.927Z,81.60
2017-10-27T10:24:43.116Z,81.20
2017-10-27T10:27:11.311Z,81.00
2017-10-27T10:29:40.295Z,80.40
2017-10-27T10:32:08.767Z,79.50
2017-10-27T10:34:36.999Z,79.40
2017-10-27T10:37:05.941Z,78.80
2017-10-27T10:39:34.147Z,78.80
2017-10-27T10:42:02.412Z,78.90
2017-10-27T10:44:30.651Z,79.60
2017-10-27T10:46:58.872Z,78.80
2017-10-27T10:49:27.851Z,79.60
2017-10-27T10:51:56.672Z,79.60
2017-10-27T10:54:24.867Z,77.90
2017-10-27T10:56:53.091Z,79.10
2017-10-27T10:59:21.305Z,79.10
2017-10-27T11:01:49.487Z,79.10
2017-10-27T11:04:18.031Z,79.00
2017-10-27T11:06:46.263Z,78.80
2017-10-27T11:09:14.495Z,76.10
2017-10-27T11:11:43.445Z,72.70
2017-10-27T11:14:11.681Z,72.60
2017-10-27T11:16:40.655Z,68.60
2017-10-27T11:19:08.875Z,68.40
2017-10-27T11:21:37.092Z,69.00
2017-10-27T11:24:05.303Z,68.70
2017-10-27T11:26:33.948Z,68.50
2017-10-27T11:29:03.917Z,67.00
2017-10-27T11:31:32.174Z,66.90
2017-10-27T11:34:00.389Z,67.00
2017-10-27T11:36:28.603Z,66.60
2017-10-27T11:38:56.804Z,66.80
2017-10-27T11:41:24.996Z,65.10
2017-10-27T11:43:53.215Z,66.10
2017-10-27T11:46:21.391Z,65.70
2017-10-27T11:48:49.539Z,65.40
2017-10-27T11:51:17.748Z,65.40
2017-10-27T11:53:46.207Z,66.40
2017-10-27T11:57:43.913Z,64.10
2017-10-27T12:00:13.978Z,64.60
2017-10-27T12:02:42.216Z,64.60
2017-10-27T12:05:10.447Z,64.80
2017-10-27T12:07:39.139Z,64.40
2017-10-27T12:10:07.632Z,65.10
2017-10-27T12:12:35.855Z,65.30
2017-10-27T12:15:04.088Z,65.80
2017-10-27T12:17:32.279Z,65.50
2017-10-27T12:20:00.488Z,64.90
2017-10-27T12:22:28.703Z,65.10
2017-10-27T12:24:56.896Z,63.90
2017-10-27T12:27:25.104Z,63.20
2017-10-27T12:29:53.647Z,63.00
2017-10-27T12:32:21.881Z,63.50
2017-10-27T12:34:50.091Z,62.80
2017-10-27T12:37:18.308Z,62.60
2017-10-27T12:39:46.537Z,62.70
2017-10-27T12:42:16.226Z,63.30
2017-10-27T12:44:44.709Z,63.30
2017-10-27T12:47:12.960Z,61.70
2017-10-27T12:49:41.169Z,62.50
2017-10-27T12:52:10.420Z,62.60
2017-10-27T12:54:38.599Z,62.30
2017-10-27T12:57:06.739Z,62.50
2017-10-27T12:59:34.896Z,63.10
2017-10-27T13:02:03.099Z,62.80
2017-10-27T13:04:32.037Z,62.00
2017-10-27T13:07:00.209Z,62.00
2017-10-27T13:09:28.360Z,61.70
2017-10-27T13:11:56.527Z,62.30
2017-10-27T13:14:25.680Z,62.70
2017-10-27T13:16:54.207Z,62.60
2017-10-27T13:19:22.448Z,63.20
2017-10-27T13:21:50.688Z,63.00
2017-10-27T13:24:18.915Z,62.70
2017-10-27T13:26:47.104Z,63.10
2017-10-27T13:29:15.308Z,63.20
2017-10-27T13:31:43.585Z,63.70
2017-10-27T13:34:11.848Z,64.10
2017-10-27T13:36:40.051Z,64.50
2017-10-27T13:39:08.284Z,64.30
2017-10-27T13:41:36.488Z,63.50
2017-10-27T13:44:04.729Z,63.80
2017-10-27T13:46:34.112Z,63.10
2017-10-27T13:49:03.864Z,63.80
2017-10-27T13:51:32.067Z,63.80
2017-10-27T13:54:00.272Z,64.10
2017-10-27T13:56:28.514Z,63.50
2017-10-27T13:58:56.765Z,62.80
2017-10-27T14:01:25.013Z,63.20
2017-10-27T14:03:53.556Z,63.50
2017-10-27T14:06:21.800Z,62.70
2017-10-27T14:08:50.056Z,63.20
2017-10-27T14:11:18.231Z,63.20
2017-10-27T14:13:47.227Z,63.50
2017-10-27T14:16:15.430Z,63.30
2017-10-27T14:18:43.599Z,64.00
2017-10-27T14:21:11.799Z,64.50
2017-10-27T14:23:40.000Z,64.50
2017-10-27T14:26:08.167Z,64.70
2017-10-27T14:28:36.626Z,65.30
2017-10-27T14:31:04.828Z,65.80
2017-10-27T14:33:32.992Z,66.20
2017-10-27T14:36:01.123Z,66.30
2017-10-27T14:38:29.313Z,66.40
2017-10-27T14:40:57.470Z,66.20
2017-10-27T14:43:25.607Z,66.60
2017-10-27T14:45:53.722Z,66.90
2017-10-27T14:48:22.150Z,67.30
2017-10-27T14:50:50.282Z,67.70
2017-10-27T14:53:18.358Z,67.80
2017-10-27T14:55:46.553Z,68.30
2017-10-27T14:58:14.642Z,68.40
2017-10-27T15:00:42.822Z,69.20
2017-10-27T15:03:11.382Z,69.90
2017-10-27T15:05:39.451Z,70.30
2017-10-27T15:08:07.554Z,70.40
2017-10-27T15:10:35.649Z,70.80
2017-10-27T15:13:04.482Z,71.70
2017-10-27T15:15:32.565Z,71.50
2017-10-27T15:18:00.689Z,72.20
2017-10-27T15:20:29.529Z,72.80
2017-10-27T15:22:57.938Z,72.80
2017-10-27T15:25:26.102Z,73.10
2017-10-27T15:27:54.634Z,73.30
2017-10-27T15:30:22.697Z,73.80
2017-10-27T15:32:50.793Z,74.10
2017-10-27T15:35:18.875Z,74.40
2017-10-27T15:37:46.990Z,74.70
2017-10-27T15:40:15.055Z,75.00
2017-10-27T15:42:43.126Z,75.40
2017-10-27T15:45:11.933Z,76.30
2017-10-27T15:47:40.745Z,77.00
2017-10-27T15:50:09.013Z,77.00
2017-10-27T15:52:37.119Z,77.70
2017-10-27T15:55:06.465Z,78.60
2017-10-27T15:57:35.278Z,78.70
2017-10-27T16:00:03.982Z,78.60
2017-10-27T16:02:32.038Z,78.80
2017-10-27T16:05:00.106Z,79.00
2017-10-27T16:07:28.203Z,79.20
2017-10-27T16:09:56.274Z,79.30
2017-10-27T16:12:24.377Z,79.50
2017-10-27T16:14:52.430Z,79.70
2017-10-27T16:17:20.933Z,80.20
2017-10-27T16:19:49.054Z,80.50
2017-10-27T16:22:17.253Z,80.50
2017-10-27T16:24:45.342Z,80.60
2017-10-27T16:27:13.597Z,80.80
2017-10-27T16:29:41.710Z,81.00
2017-10-27T16:32:09.814Z,81.20
2017-10-27T16:34:37.885Z,81.10
2017-10-27T16:37:05.970Z,81.00
2017-10-27T16:39:34.671Z,80.60
2017-10-27T16:42:02.746Z,80.50
2017-10-27T16:44:30.817Z,80.80
2017-10-27T16:46:58.882Z,80.60
2017-10-27T16:49:26.954Z,80.80
2017-10-27T16:51:55.302Z,81.00
2017-10-27T16:54:23.455Z,80.90
2017-10-27T16:56:51.673Z,80.80
2017-10-27T16:59:19.789Z,80.70
2017-10-27T17:01:47.946Z,80.90
2017-10-27T17:04:16.093Z,81.30
2017-10-27T17:06:44.562Z,81.70
2017-10-27T17:09:12.904Z,82.30
2017-10-27T17:11:41.356Z,82.50
2017-10-27T17:14:09.631Z,83.10
2017-10-27T17:16:37.931Z,83.40
2017-10-27T17:19:06.604Z,83.90
2017-10-27T17:21:34.905Z,84.30
2017-10-27T17:24:03.424Z,85.20
2017-10-27T17:26:31.656Z,86.10
2017-10-27T17:29:00.159Z,87.00
2017-10-27T17:31:29.327Z,88.10
2017-10-27T17:33:57.731Z,88.00
2017-10-27T17:36:26.026Z,88.40
2017-10-27T17:38:55.114Z,87.90
2017-10-27T17:41:24.249Z,88.00
2017-10-27T17:43:52.722Z,88.00
2017-10-27T17:46:21.077Z,87.90
2017-10-27T17:48:49.394Z,87.60
2017-10-27T17:51:17.563Z,86.80
2017-10-27T17:53:46.331Z,85.80
2017-10-27T17:56:14.673Z,86.10
2017-10-27T17:58:42.865Z,86.10
2017-10-27T18:01:11.803Z,85.10
2017-10-27T18:03:40.398Z,85.00
2017-10-27T18:06:08.673Z,84.40
2017-10-27T18:08:36.748Z,83.80
2017-10-27T18:11:05.265Z,83.50
2017-10-27T18:13:33.533Z,83.30
2017-10-27T18:16:01.986Z,83.50
2017-10-27T18:18:30.966Z,83.50
2017-10-27T18:20:59.266Z,83.20
2017-10-27T18:23:27.445Z,83.50
2017-10-27T18:25:56.035Z,83.60
2017-10-27T18:28:24.531Z,83.90
2017-10-27T18:30:53.687Z,85.30
2017-10-27T18:33:22.135Z,85.30
2017-10-27T18:35:50.821Z,85.80
2017-10-27T18:38:19.025Z,86.50
2017-10-27T18:40:47.350Z,87.30
2017-10-27T18:43:16.587Z,88.00
2017-10-27T18:45:45.179Z,88.00
2017-10-27T18:48:13.768Z,87.90
2017-10-27T18:50:42.254Z,87.80
2017-10-27T18:53:10.318Z,87.80
2017-10-27T18:55:38.425Z,87.80
2017-10-27T18:58:06.554Z,87.60
2017-10-27T19:00:34.614Z,87.50
2017-10-27T19:03:03.516Z,87.60
2017-10-27T19:05:31.641Z,87.60
2017-10-27T19:07:59.741Z,87.80
2017-10-27T19:10:28.218Z,87.80
2017-10-27T19:12:56.518Z,87.70
2017-10-27T19:15:24.622Z,88.00
2017-10-27T19:17:52.707Z,88.10
2017-10-27T19:20:20.839Z,88.10
2017-10-27T19:22:50.078Z,88.00
2017-10-27T19:25:18.191Z,87.60
2017-10-27T19:27:47.078Z,87.50
2017-10-27T19:30:15.954Z,87.30
2017-10-27T19:32:44.549Z,87.30
2017-10-27T19:35:12.639Z,87.70
2017-10-27T19:37:40.735Z,86.50
2017-10-27T19:40:08.825Z,86.10
2017-10-27T19:42:36.890Z,86.00
2017-10-27T19:45:04.974Z,85.70
2017-10-27T19:47:33.054Z,85.60
2017-10-27T19:50:01.870Z,85.50
2017-10-27T19:52:29.934Z,85.50
2017-10-27T19:54:58.481Z,85.00
2017-10-27T19:57:26.954Z,85.00
2017-10-27T19:59:55.389Z,84.80
2017-10-27T20:02:23.450Z,84.60
2017-10-27T20:04:51.518Z,84.50
2017-10-27T20:07:19.626Z,83.90
2017-10-27T20:09:47.729Z,83.30
2017-10-27T20:12:15.794Z,83.20
2017-10-27T20:14:44.402Z,82.00
2017-10-27T20:17:12.481Z,81.60
2017-10-27T20:19:42.079Z,81.80
2017-10-27T20:22:10.903Z,81.60
2017-10-27T20:24:39.174Z,81.60
2017-10-27T20:27:07.262Z,81.60
2017-10-27T20:29:35.573Z,81.60
2017-10-27T20:32:03.718Z,81.50
2017-10-27T20:34:31.806Z,81.30
2017-10-27T20:37:00.082Z,81.10
2017-10-27T20:39:28.458Z,80.90
2017-10-27T20:41:56.551Z,80.40
2017-10-27T20:44:24.646Z,80.10
2017-10-27T20:46:52.751Z,80.10
2017-10-27T20:49:21.562Z,79.40
2017-10-27T20:51:49.651Z,79.40
2017-10-27T20:54:17.754Z,79.30
2017-10-27T20:56:46.776Z,79.50
2017-10-27T20:59:15.125Z,79.50
2017-10-27T21:01:43.255Z,79.30
2017-10-27T21:04:11.742Z,79.40
2017-10-27T21:06:39.854Z,78.90
2017-10-27T21:09:08.069Z,78.80
2017-10-27T21:11:36.245Z,78.50
2017-10-27T21:14:04.393Z,78.50
2017-10-27T21:16:32.479Z,78.60
2017-10-27T21:19:01.285Z,78.50
2017-10-27T21:21:29.610Z,78.30
2017-10-27T21:23:57.718Z,78.30
2017-10-27T21:26:26.519Z,78.00
2017-10-27T21:28:54.573Z,78.00
2017-10-27T21:31:22.626Z,77.80
2017-10-27T21:33:50.741Z,78.60
2017-10-27T21:36:18.814Z,77.90
2017-10-27T21:38:46.890Z,77.90
2017-10-27T21:41:14.974Z,77.90
2017-10-27T21:43:43.088Z,77.50
2017-10-27T21:46:11.174Z,77.10
2017-10-27T21:48:39.622Z,76.90
2017-10-27T21:51:07.719Z,76.90
2017-10-27T21:53:35.956Z,77.10
2017-10-27T21:56:04.099Z,77.50
2017-10-27T21:58:32.213Z,77.90
2017-10-27T22:01:00.764Z,78.30
2017-10-27T22:03:28.878Z,78.90
2017-10-27T22:05:57.026Z,79.90
2017-10-27T22:08:25.131Z,80.50
2017-10-27T22:10:53.246Z,81.20
2017-10-27T22:13:21.598Z,81.60
2017-10-27T22:15:49.702Z,81.80
2017-10-27T22:18:17.822Z,82.30
2017-10-27T22:20:45.972Z,83.20
2017-10-27T22:23:14.022Z,84.00
2017-10-27T22:25:42.110Z,84.70
2017-10-27T22:28:10.172Z,86.60
2017-10-27T22:30:38.265Z,88.90
2017-10-27T22:33:06.318Z,91.10
2017-10-27T22:35:34.385Z,93.00
2017-10-27T22:38:02.638Z,94.00
2017-10-27T22:40:30.698Z,94.90
2017-10-27T22:42:58.769Z,95.10
2017-10-27T22:45:26.854Z,95.50
2017-10-27T22:47:54.926Z,95.90
2017-10-27T22:50:23.439Z,96.10
2017-10-27T22:52:51.526Z,96.20
2017-10-27T22:55:19.602Z,96.20
2017-10-27T22:57:47.653Z,96.30
2017-10-27T23:00:15.742Z,96.30
2017-10-27T23:02:44.214Z,96.40
2017-10-27T23:05:12.572Z,96.60
2017-10-27T23:07:45.606Z,96.60
2017-10-27T23:10:13.658Z,96.70
2017-10-27T23:12:41.750Z,97.00
2017-10-27T23:15:09.805Z,97.10
2017-10-27T23:17:37.863Z,97.20
2017-10-27T23:20:05.930Z,97.20
2017-10-27T23:22:34.338Z,97.10
2017-10-27T23:25:02.491Z,97.30
2017-10-27T23:27:30.563Z,97.40
2017-10-27T23:29:58.617Z,97.60
2017-10-27T23:32:26.703Z,97.80
2017-10-27T23:34:54.770Z,97.50
2017-10-27T23:37:22.817Z,97.50
2017-10-27T23:39:51.638Z,97.20
2017-10-27T23:42:20.439Z,97.20
2017-10-27T23:44:48.526Z,97.40
2017-10-27T23:47:16.582Z,97.70
2017-10-27T23:49:44.669Z,97.70
2017-10-27T23:52:12.738Z,97.60
2017-10-27T23:54:40.805Z,97.50
2017-10-27T23:57:08.877Z,97.60
2017-10-27T23:59:36.952Z,97.50
